sensor_id;sensor_type;location;lat;lon;timestamp;P1;durP1;ratioP1;P2;durP2;ratioP2
23046;SDS011;11691;51.462;6.902;2022-09-29T00:00:07;15.00;;;11.00;;
23046;SDS011;11691;51.462;6.902;2022-09-29T00:02:33;17.70;;;11.20;;
23046;SDS011;11691;51.462;6.902;2022-09-29T00:04:59;14.63;;;10.67;;
23046;SDS011;11691;51.462;6.902;2022-09-29T00:07:25;17.93;;;10.97;;
23046;SDS011;11691;51.462;6.902;2022-09-29T00:09:51;14.93;;;10.70;;
23046;SDS011;11691;51.462;6.902;2022-09-29T00:12:17;15.20;;;10.57;;
23046;SDS011;11691;51.462;6.902;2022-09-29T00:14:43;16.37;;;10.23;;
23046;SDS011;11691;51.462;6.902;2022-09-29T00:17:09;15.13;;;10.73;;
23046;SDS011;11691;51.462;6.902;2022-09-29T00:19:35;15.13;;;10.60;;
23046;SDS011;11691;51.462;6.902;2022-09-29T00:22:01;13.77;;;9.87;;
23046;SDS011;11691;51.462;6.902;2022-09-29T00:24:27;18.13;;;10.87;;
23046;SDS011;11691;51.462;6.902;2022-09-29T00:26:53;12.80;;;9.77;;
23046;SDS011;11691;51.462;6.902;2022-09-29T00:29:19;14.03;;;9.90;;
23046;SDS011;11691;51.462;6.902;2022-09-29T00:31:45;13.63;;;10.30;;
23046;SDS011;11691;51.462;6.902;2022-09-29T00:34:11;13.60;;;9.90;;
23046;SDS011;11691;51.462;6.902;2022-09-29T00:36:37;16.80;;;10.60;;
23046;SDS011;11691;51.462;6.902;2022-09-29T00:39:05;14.03;;;10.43;;
23046;SDS011;11691;51.462;6.902;2022-09-29T00:41:32;14.20;;;10.10;;
23046;SDS011;11691;51.462;6.902;2022-09-29T00:44:00;13.27;;;10.70;;
23046;SDS011;11691;51.462;6.902;2022-09-29T00:46:54;15.70;;;10.57;;
23046;SDS011;11691;51.462;6.902;2022-09-29T00:49:26;14.43;;;10.57;;
23046;SDS011;11691;51.462;6.902;2022-09-29T00:51:55;14.67;;;10.23;;
23046;SDS011;11691;51.462;6.902;2022-09-29T00:54:22;14.23;;;10.43;;
23046;SDS011;11691;51.462;6.902;2022-09-29T00:56:52;13.23;;;10.43;;
23046;SDS011;11691;51.462;6.902;2022-09-29T00:59:24;17.20;;;10.97;;
23046;SDS011;11691;51.462;6.902;2022-09-29T01:01:52;14.57;;;10.50;;
23046;SDS011;11691;51.462;6.902;2022-09-29T01:04:18;12.93;;;9.70;;
23046;SDS011;11691;51.462;6.902;2022-09-29T01:06:48;15.80;;;10.60;;
23046;SDS011;11691;51.462;6.902;2022-09-29T01:09:17;15.43;;;10.53;;
23046;SDS011;11691;51.462;6.902;2022-09-29T01:11:44;15.47;;;10.23;;
23046;SDS011;11691;51.462;6.902;2022-09-29T01:14:10;15.77;;;10.80;;
23046;SDS011;11691;51.462;6.902;2022-09-29T01:16:36;13.53;;;9.87;;
23046;SDS011;11691;51.462;6.902;2022-09-29T01:20:08;16.43;;;10.50;;
23046;SDS011;11691;51.462;6.902;2022-09-29T01:44:13;16.93;;;11.00;;
23046;SDS011;11691;51.462;6.902;2022-09-29T01:46:43;15.30;;;10.77;;
23046;SDS011;11691;51.462;6.902;2022-09-29T01:49:09;16.23;;;11.20;;
23046;SDS011;11691;51.462;6.902;2022-09-29T01:54:03;16.70;;;10.77;;
23046;SDS011;11691;51.462;6.902;2022-09-29T01:56:37;14.97;;;9.87;;
23046;SDS011;11691;51.462;6.902;2022-09-29T01:59:11;16.33;;;11.40;;
23046;SDS011;11691;51.462;6.902;2022-09-29T02:01:40;14.77;;;11.23;;
23046;SDS011;11691;51.462;6.902;2022-09-29T02:04:30;17.07;;;11.00;;
23046;SDS011;11691;51.462;6.902;2022-09-29T02:06:59;16.63;;;10.10;;
23046;SDS011;11691;51.462;6.902;2022-09-29T02:09:34;14.83;;;10.77;;
23046;SDS011;11691;51.462;6.902;2022-09-29T02:12:04;15.57;;;10.60;;
23046;SDS011;11691;51.462;6.902;2022-09-29T02:14:36;16.23;;;10.67;;
23046;SDS011;11691;51.462;6.902;2022-09-29T02:17:10;17.63;;;11.40;;
23046;SDS011;11691;51.462;6.902;2022-09-29T02:19:37;16.03;;;10.63;;
23046;SDS011;11691;51.462;6.902;2022-09-29T02:22:06;15.53;;;11.13;;
23046;SDS011;11691;51.462;6.902;2022-09-29T02:24:32;14.50;;;10.97;;
23046;SDS011;11691;51.462;6.902;2022-09-29T02:26:58;12.70;;;9.93;;
23046;SDS011;11691;51.462;6.902;2022-09-29T02:29:24;17.77;;;10.47;;
23046;SDS011;11691;51.462;6.902;2022-09-29T02:31:51;16.03;;;10.27;;
23046;SDS011;11691;51.462;6.902;2022-09-29T02:34:18;13.70;;;10.60;;
23046;SDS011;11691;51.462;6.902;2022-09-29T02:36:54;15.23;;;10.67;;
23046;SDS011;11691;51.462;6.902;2022-09-29T02:41:57;13.27;;;10.10;;
23046;SDS011;11691;51.462;6.902;2022-09-29T02:47:24;13.23;;;9.30;;
23046;SDS011;11691;51.462;6.902;2022-09-29T02:52:35;15.60;;;9.83;;
23046;SDS011;11691;51.462;6.902;2022-09-29T02:55:10;15.30;;;10.10;;
23046;SDS011;11691;51.462;6.902;2022-09-29T03:00:11;16.03;;;10.23;;
23046;SDS011;11691;51.462;6.902;2022-09-29T03:02:40;13.27;;;9.83;;
23046;SDS011;11691;51.462;6.902;2022-09-29T03:05:07;16.50;;;10.80;;
23046;SDS011;11691;51.462;6.902;2022-09-29T03:07:41;16.33;;;10.67;;
23046;SDS011;11691;51.462;6.902;2022-09-29T03:10:08;15.87;;;10.10;;
23046;SDS011;11691;51.462;6.902;2022-09-29T03:12:35;13.97;;;9.77;;
23046;SDS011;11691;51.462;6.902;2022-09-29T03:15:02;14.27;;;9.87;;
23046;SDS011;11691;51.462;6.902;2022-09-29T03:17:28;15.70;;;10.70;;
23046;SDS011;11691;51.462;6.902;2022-09-29T03:19:55;16.17;;;10.43;;
23046;SDS011;11691;51.462;6.902;2022-09-29T03:22:21;14.43;;;9.97;;
23046;SDS011;11691;51.462;6.902;2022-09-29T03:24:47;15.53;;;10.60;;
23046;SDS011;11691;51.462;6.902;2022-09-29T03:27:14;14.77;;;10.20;;
23046;SDS011;11691;51.462;6.902;2022-09-29T03:29:40;16.83;;;10.53;;
23046;SDS011;11691;51.462;6.902;2022-09-29T03:32:07;16.33;;;11.03;;
23046;SDS011;11691;51.462;6.902;2022-09-29T03:34:33;16.30;;;10.40;;
23046;SDS011;11691;51.462;6.902;2022-09-29T03:36:59;16.03;;;10.27;;
23046;SDS011;11691;51.462;6.902;2022-09-29T03:39:25;15.07;;;10.23;;
23046;SDS011;11691;51.462;6.902;2022-09-29T03:41:52;13.60;;;10.13;;
23046;SDS011;11691;51.462;6.902;2022-09-29T03:44:18;15.33;;;9.57;;
23046;SDS011;11691;51.462;6.902;2022-09-29T03:46:44;17.40;;;10.97;;
23046;SDS011;11691;51.462;6.902;2022-09-29T03:49:11;17.70;;;11.17;;
23046;SDS011;11691;51.462;6.902;2022-09-29T03:51:37;17.90;;;10.10;;
23046;SDS011;11691;51.462;6.902;2022-09-29T03:54:04;15.83;;;10.20;;
23046;SDS011;11691;51.462;6.902;2022-09-29T03:56:30;12.10;;;9.67;;
23046;SDS011;11691;51.462;6.902;2022-09-29T03:58:56;17.10;;;10.20;;
23046;SDS011;11691;51.462;6.902;2022-09-29T04:01:22;14.87;;;10.80;;
23046;SDS011;11691;51.462;6.902;2022-09-29T04:03:48;15.10;;;10.67;;
23046;SDS011;11691;51.462;6.902;2022-09-29T04:06:14;14.63;;;10.23;;
23046;SDS011;11691;51.462;6.902;2022-09-29T04:08:40;18.90;;;10.97;;
23046;SDS011;11691;51.462;6.902;2022-09-29T04:11:06;16.00;;;10.83;;
23046;SDS011;11691;51.462;6.902;2022-09-29T04:13:32;17.70;;;10.93;;
23046;SDS011;11691;51.462;6.902;2022-09-29T04:15:59;16.27;;;10.97;;
23046;SDS011;11691;51.462;6.902;2022-09-29T04:18:26;16.00;;;10.93;;
23046;SDS011;11691;51.462;6.902;2022-09-29T04:20:53;18.33;;;10.83;;
23046;SDS011;11691;51.462;6.902;2022-09-29T04:23:21;19.07;;;11.80;;
23046;SDS011;11691;51.462;6.902;2022-09-29T04:25:47;17.10;;;10.33;;
23046;SDS011;11691;51.462;6.902;2022-09-29T04:28:13;15.70;;;11.10;;
23046;SDS011;11691;51.462;6.902;2022-09-29T04:30:39;15.20;;;10.83;;
23046;SDS011;11691;51.462;6.902;2022-09-29T04:33:05;19.23;;;11.73;;
23046;SDS011;11691;51.462;6.902;2022-09-29T04:35:31;21.43;;;11.77;;
23046;SDS011;11691;51.462;6.902;2022-09-29T04:37:57;15.93;;;11.87;;
23046;SDS011;11691;51.462;6.902;2022-09-29T04:40:23;20.47;;;11.53;;
23046;SDS011;11691;51.462;6.902;2022-09-29T04:42:49;17.17;;;11.77;;
23046;SDS011;11691;51.462;6.902;2022-09-29T04:45:15;18.37;;;11.07;;
23046;SDS011;11691;51.462;6.902;2022-09-29T04:47:41;16.60;;;10.67;;
23046;SDS011;11691;51.462;6.902;2022-09-29T04:50:07;19.27;;;11.53;;
23046;SDS011;11691;51.462;6.902;2022-09-29T04:52:34;14.93;;;11.23;;
23046;SDS011;11691;51.462;6.902;2022-09-29T04:55:00;15.50;;;11.67;;
23046;SDS011;11691;51.462;6.902;2022-09-29T04:57:26;17.90;;;10.90;;
23046;SDS011;11691;51.462;6.902;2022-09-29T04:59:52;17.80;;;10.77;;
23046;SDS011;11691;51.462;6.902;2022-09-29T05:02:20;13.40;;;10.73;;
23046;SDS011;11691;51.462;6.902;2022-09-29T05:04:46;16.57;;;10.97;;
23046;SDS011;11691;51.462;6.902;2022-09-29T05:07:12;19.73;;;12.70;;
23046;SDS011;11691;51.462;6.902;2022-09-29T05:09:38;17.97;;;11.80;;
23046;SDS011;11691;51.462;6.902;2022-09-29T05:12:04;18.60;;;11.83;;
23046;SDS011;11691;51.462;6.902;2022-09-29T05:14:30;17.23;;;11.97;;
23046;SDS011;11691;51.462;6.902;2022-09-29T05:16:56;17.73;;;11.80;;
23046;SDS011;11691;51.462;6.902;2022-09-29T05:19:22;18.33;;;11.97;;
23046;SDS011;11691;51.462;6.902;2022-09-29T05:21:48;18.40;;;12.57;;
23046;SDS011;11691;51.462;6.902;2022-09-29T05:24:14;16.17;;;11.80;;
23046;SDS011;11691;51.462;6.902;2022-09-29T05:26:40;17.87;;;11.67;;
23046;SDS011;11691;51.462;6.902;2022-09-29T05:29:06;15.90;;;11.77;;
23046;SDS011;11691;51.462;6.902;2022-09-29T05:31:32;19.43;;;11.93;;
23046;SDS011;11691;51.462;6.902;2022-09-29T05:33:58;16.57;;;11.87;;
23046;SDS011;11691;51.462;6.902;2022-09-29T05:36:24;19.97;;;12.13;;
23046;SDS011;11691;51.462;6.902;2022-09-29T05:38:50;16.13;;;11.57;;
23046;SDS011;11691;51.462;6.902;2022-09-29T05:41:16;15.50;;;11.10;;
23046;SDS011;11691;51.462;6.902;2022-09-29T05:43:46;15.17;;;11.30;;
23046;SDS011;11691;51.462;6.902;2022-09-29T05:46:12;19.30;;;11.87;;
23046;SDS011;11691;51.462;6.902;2022-09-29T05:48:40;19.10;;;12.30;;
23046;SDS011;11691;51.462;6.902;2022-09-29T05:51:08;16.80;;;12.13;;
23046;SDS011;11691;51.462;6.902;2022-09-29T05:53:35;16.23;;;11.83;;
23046;SDS011;11691;51.462;6.902;2022-09-29T05:56:05;19.57;;;12.17;;
23046;SDS011;11691;51.462;6.902;2022-09-29T05:58:43;17.87;;;12.13;;
23046;SDS011;11691;51.462;6.902;2022-09-29T06:01:12;17.30;;;12.37;;
23046;SDS011;11691;51.462;6.902;2022-09-29T06:03:38;16.13;;;11.00;;
23046;SDS011;11691;51.462;6.902;2022-09-29T06:06:05;16.80;;;12.53;;
23046;SDS011;11691;51.462;6.902;2022-09-29T06:08:31;17.73;;;11.73;;
23046;SDS011;11691;51.462;6.902;2022-09-29T06:11:05;21.53;;;11.70;;
23046;SDS011;11691;51.462;6.902;2022-09-29T06:13:31;16.60;;;11.57;;
23046;SDS011;11691;51.462;6.902;2022-09-29T06:15:58;18.13;;;12.13;;
23046;SDS011;11691;51.462;6.902;2022-09-29T06:18:24;18.30;;;11.67;;
23046;SDS011;11691;51.462;6.902;2022-09-29T06:20:50;17.83;;;11.57;;
23046;SDS011;11691;51.462;6.902;2022-09-29T06:23:15;15.93;;;11.33;;
23046;SDS011;11691;51.462;6.902;2022-09-29T06:25:41;19.67;;;11.50;;
23046;SDS011;11691;51.462;6.902;2022-09-29T06:28:07;13.67;;;10.63;;
23046;SDS011;11691;51.462;6.902;2022-09-29T06:30:33;16.87;;;11.20;;
23046;SDS011;11691;51.462;6.902;2022-09-29T06:32:59;15.83;;;11.23;;
23046;SDS011;11691;51.462;6.902;2022-09-29T06:35:26;17.20;;;11.53;;
23046;SDS011;11691;51.462;6.902;2022-09-29T06:38:10;17.57;;;11.00;;
23046;SDS011;11691;51.462;6.902;2022-09-29T06:40:36;19.30;;;10.70;;
23046;SDS011;11691;51.462;6.902;2022-09-29T06:43:02;14.07;;;9.97;;
23046;SDS011;11691;51.462;6.902;2022-09-29T06:45:28;14.83;;;11.17;;
23046;SDS011;11691;51.462;6.902;2022-09-29T06:47:58;15.57;;;11.00;;
23046;SDS011;11691;51.462;6.902;2022-09-29T06:50:24;15.97;;;10.67;;
23046;SDS011;11691;51.462;6.902;2022-09-29T06:52:50;14.97;;;10.00;;
23046;SDS011;11691;51.462;6.902;2022-09-29T06:55:16;13.53;;;10.30;;
23046;SDS011;11691;51.462;6.902;2022-09-29T06:57:42;13.30;;;10.00;;
23046;SDS011;11691;51.462;6.902;2022-09-29T07:00:09;15.20;;;9.40;;
23046;SDS011;11691;51.462;6.902;2022-09-29T07:02:35;12.97;;;9.57;;
23046;SDS011;11691;51.462;6.902;2022-09-29T07:05:01;18.53;;;8.93;;
23046;SDS011;11691;51.462;6.902;2022-09-29T07:07:27;13.63;;;9.30;;
23046;SDS011;11691;51.462;6.902;2022-09-29T07:09:53;14.47;;;9.77;;
23046;SDS011;11691;51.462;6.902;2022-09-29T07:12:19;13.57;;;9.30;;
23046;SDS011;11691;51.462;6.902;2022-09-29T07:14:45;11.03;;;8.60;;
23046;SDS011;11691;51.462;6.902;2022-09-29T07:17:11;11.77;;;8.53;;
23046;SDS011;11691;51.462;6.902;2022-09-29T07:19:39;16.30;;;8.93;;
23046;SDS011;11691;51.462;6.902;2022-09-29T07:22:05;12.73;;;8.67;;
23046;SDS011;11691;51.462;6.902;2022-09-29T07:24:33;12.80;;;8.23;;
23046;SDS011;11691;51.462;6.902;2022-09-29T07:26:59;10.50;;;7.73;;
23046;SDS011;11691;51.462;6.902;2022-09-29T07:29:25;9.63;;;7.97;;
23046;SDS011;11691;51.462;6.902;2022-09-29T07:31:56;10.73;;;8.03;;
23046;SDS011;11691;51.462;6.902;2022-09-29T07:34:22;13.10;;;7.87;;
23046;SDS011;11691;51.462;6.902;2022-09-29T07:36:48;11.07;;;7.60;;
23046;SDS011;11691;51.462;6.902;2022-09-29T07:39:14;11.13;;;6.87;;
23046;SDS011;11691;51.462;6.902;2022-09-29T07:41:40;11.57;;;6.93;;
23046;SDS011;11691;51.462;6.902;2022-09-29T07:44:06;8.10;;;6.67;;
23046;SDS011;11691;51.462;6.902;2022-09-29T07:46:31;11.03;;;6.80;;
23046;SDS011;11691;51.462;6.902;2022-09-29T07:48:57;10.13;;;6.57;;
23046;SDS011;11691;51.462;6.902;2022-09-29T07:51:24;7.00;;;6.30;;
23046;SDS011;11691;51.462;6.902;2022-09-29T07:53:50;6.95;;;6.00;;
23046;SDS011;11691;51.462;6.902;2022-09-29T07:56:17;8.23;;;6.20;;
23046;SDS011;11691;51.462;6.902;2022-09-29T07:58:45;8.38;;;6.30;;
23046;SDS011;11691;51.462;6.902;2022-09-29T08:01:11;6.75;;;5.50;;
23046;SDS011;11691;51.462;6.902;2022-09-29T08:03:40;7.25;;;5.50;;
23046;SDS011;11691;51.462;6.902;2022-09-29T08:06:06;7.35;;;5.15;;
23046;SDS011;11691;51.462;6.902;2022-09-29T08:08:36;10.38;;;5.50;;
23046;SDS011;11691;51.462;6.902;2022-09-29T08:11:12;11.57;;;5.10;;
23046;SDS011;11691;51.462;6.902;2022-09-29T08:13:40;6.53;;;4.68;;
23046;SDS011;11691;51.462;6.902;2022-09-29T08:16:07;8.30;;;5.00;;
23046;SDS011;11691;51.462;6.902;2022-09-29T08:18:34;5.68;;;4.35;;
23046;SDS011;11691;51.462;6.902;2022-09-29T08:21:00;4.57;;;4.07;;
23046;SDS011;11691;51.462;6.902;2022-09-29T08:23:27;5.35;;;4.13;;
23046;SDS011;11691;51.462;6.902;2022-09-29T08:26:02;7.95;;;4.07;;
23046;SDS011;11691;51.462;6.902;2022-09-29T08:28:29;5.22;;;3.85;;
23046;SDS011;11691;51.462;6.902;2022-09-29T08:30:55;4.85;;;4.10;;
23046;SDS011;11691;51.462;6.902;2022-09-29T08:33:21;6.35;;;3.85;;
23046;SDS011;11691;51.462;6.902;2022-09-29T08:35:54;7.10;;;4.10;;
23046;SDS011;11691;51.462;6.902;2022-09-29T08:38:20;6.57;;;3.80;;
23046;SDS011;11691;51.462;6.902;2022-09-29T08:40:46;5.45;;;3.90;;
23046;SDS011;11691;51.462;6.902;2022-09-29T08:43:18;5.85;;;3.42;;
23046;SDS011;11691;51.462;6.902;2022-09-29T08:45:47;3.90;;;3.25;;
23046;SDS011;11691;51.462;6.902;2022-09-29T08:48:19;7.80;;;3.03;;
23046;SDS011;11691;51.462;6.902;2022-09-29T08:50:51;6.75;;;3.55;;
23046;SDS011;11691;51.462;6.902;2022-09-29T08:53:20;7.38;;;3.65;;
23046;SDS011;11691;51.462;6.902;2022-09-29T08:55:49;3.83;;;3.40;;
23046;SDS011;11691;51.462;6.902;2022-09-29T08:58:17;5.07;;;3.75;;
23046;SDS011;11691;51.462;6.902;2022-09-29T09:14:50;5.35;;;3.88;;
23046;SDS011;11691;51.462;6.902;2022-09-29T09:25:20;6.85;;;3.97;;
23046;SDS011;11691;51.462;6.902;2022-09-29T09:27:51;5.18;;;3.72;;
23046;SDS011;11691;51.462;6.902;2022-09-29T09:30:23;5.05;;;4.00;;
23046;SDS011;11691;51.462;6.902;2022-09-29T09:32:55;4.85;;;3.55;;
23046;SDS011;11691;51.462;6.902;2022-09-29T09:37:48;6.70;;;3.58;;
23046;SDS011;11691;51.462;6.902;2022-09-29T09:42:53;4.80;;;3.35;;
23046;SDS011;11691;51.462;6.902;2022-09-29T09:45:35;9.07;;;3.35;;
23046;SDS011;11691;51.462;6.902;2022-09-29T09:50:35;6.05;;;3.03;;
23046;SDS011;11691;51.462;6.902;2022-09-29T09:53:04;4.10;;;2.50;;
23046;SDS011;11691;51.462;6.902;2022-09-29T09:55:39;5.28;;;2.42;;
23046;SDS011;11691;51.462;6.902;2022-09-29T09:58:17;4.03;;;3.00;;
23046;SDS011;11691;51.462;6.902;2022-09-29T10:00:59;3.88;;;2.63;;
23046;SDS011;11691;51.462;6.902;2022-09-29T10:03:26;3.15;;;2.83;;
23046;SDS011;11691;51.462;6.902;2022-09-29T10:05:53;3.60;;;2.47;;
23046;SDS011;11691;51.462;6.902;2022-09-29T10:08:27;4.47;;;2.13;;
23046;SDS011;11691;51.462;6.902;2022-09-29T10:10:53;4.28;;;2.20;;
23046;SDS011;11691;51.462;6.902;2022-09-29T10:13:20;4.55;;;2.20;;
23046;SDS011;11691;51.462;6.902;2022-09-29T10:15:53;4.85;;;2.70;;
23046;SDS011;11691;51.462;6.902;2022-09-29T10:21:01;3.05;;;1.90;;
23046;SDS011;11691;51.462;6.902;2022-09-29T10:23:28;5.78;;;2.03;;
23046;SDS011;11691;51.462;6.902;2022-09-29T10:26:12;2.08;;;1.50;;
23046;SDS011;11691;51.462;6.902;2022-09-29T10:28:43;4.38;;;1.92;;
23046;SDS011;11691;51.462;6.902;2022-09-29T10:34:21;6.57;;;2.05;;
23046;SDS011;11691;51.462;6.902;2022-09-29T10:36:53;3.25;;;1.83;;
23046;SDS011;11691;51.462;6.902;2022-09-29T10:39:32;4.65;;;1.75;;
23046;SDS011;11691;51.462;6.902;2022-09-29T10:44:53;2.35;;;1.58;;
23046;SDS011;11691;51.462;6.902;2022-09-29T10:47:20;3.53;;;1.85;;
23046;SDS011;11691;51.462;6.902;2022-09-29T10:49:47;4.47;;;1.58;;
23046;SDS011;11691;51.462;6.902;2022-09-29T10:52:31;5.10;;;1.77;;
23046;SDS011;11691;51.462;6.902;2022-09-29T10:55:00;2.85;;;1.70;;
23046;SDS011;11691;51.462;6.902;2022-09-29T10:57:31;7.45;;;1.80;;
23046;SDS011;11691;51.462;6.902;2022-09-29T10:59:58;6.07;;;2.28;;
23046;SDS011;11691;51.462;6.902;2022-09-29T11:04:50;2.58;;;1.73;;
23046;SDS011;11691;51.462;6.902;2022-09-29T11:07:18;3.65;;;1.80;;
23046;SDS011;11691;51.462;6.902;2022-09-29T11:09:44;4.20;;;1.75;;
23046;SDS011;11691;51.462;6.902;2022-09-29T11:14:56;3.05;;;1.35;;
23046;SDS011;11691;51.462;6.902;2022-09-29T11:17:24;4.22;;;1.63;;
23046;SDS011;11691;51.462;6.902;2022-09-29T11:19:51;4.28;;;1.92;;
23046;SDS011;11691;51.462;6.902;2022-09-29T11:27:28;3.20;;;1.90;;
23046;SDS011;11691;51.462;6.902;2022-09-29T11:30:17;5.28;;;2.13;;
23046;SDS011;11691;51.462;6.902;2022-09-29T11:38:27;5.95;;;3.42;;
23046;SDS011;11691;51.462;6.902;2022-09-29T11:43:59;5.85;;;3.22;;
23046;SDS011;11691;51.462;6.902;2022-09-29T11:51:56;5.22;;;3.05;;
23046;SDS011;11691;51.462;6.902;2022-09-29T11:54:42;4.43;;;3.15;;
23046;SDS011;11691;51.462;6.902;2022-09-29T12:00:18;4.38;;;2.50;;
23046;SDS011;11691;51.462;6.902;2022-09-29T12:08:21;4.32;;;2.30;;
23046;SDS011;11691;51.462;6.902;2022-09-29T12:11:18;6.20;;;3.13;;
23046;SDS011;11691;51.462;6.902;2022-09-29T12:13:57;5.70;;;3.13;;
23046;SDS011;11691;51.462;6.902;2022-09-29T12:17:01;6.65;;;3.58;;
23046;SDS011;11691;51.462;6.902;2022-09-29T12:19:35;6.95;;;4.03;;
23046;SDS011;11691;51.462;6.902;2022-09-29T12:22:02;9.15;;;3.75;;
23046;SDS011;11691;51.462;6.902;2022-09-29T12:24:39;6.40;;;3.63;;
23046;SDS011;11691;51.462;6.902;2022-09-29T12:29:44;6.30;;;3.42;;
23046;SDS011;11691;51.462;6.902;2022-09-29T12:32:17;6.07;;;3.75;;
23046;SDS011;11691;51.462;6.902;2022-09-29T12:34:47;4.68;;;3.17;;
23046;SDS011;11691;51.462;6.902;2022-09-29T12:37:20;7.10;;;3.78;;
23046;SDS011;11691;51.462;6.902;2022-09-29T12:40:02;7.05;;;4.05;;
23046;SDS011;11691;51.462;6.902;2022-09-29T12:52:39;5.80;;;3.17;;
23046;SDS011;11691;51.462;6.902;2022-09-29T12:55:06;10.27;;;4.10;;
23046;SDS011;11691;51.462;6.902;2022-09-29T12:57:39;10.95;;;4.28;;
23046;SDS011;11691;51.462;6.902;2022-09-29T13:00:10;6.32;;;3.42;;
23046;SDS011;11691;51.462;6.902;2022-09-29T13:02:58;4.57;;;2.38;;
23046;SDS011;11691;51.462;6.902;2022-09-29T13:29:44;4.72;;;2.47;;
23046;SDS011;11691;51.462;6.902;2022-09-29T13:32:11;5.57;;;2.47;;
23046;SDS011;11691;51.462;6.902;2022-09-29T13:34:38;8.15;;;2.78;;
23046;SDS011;11691;51.462;6.902;2022-09-29T13:39:44;4.57;;;2.22;;
23046;SDS011;11691;51.462;6.902;2022-09-29T13:45:13;8.27;;;2.88;;
23046;SDS011;11691;51.462;6.902;2022-09-29T13:55:50;6.63;;;2.42;;
23046;SDS011;11691;51.462;6.902;2022-09-29T13:58:23;5.05;;;2.65;;
23046;SDS011;11691;51.462;6.902;2022-09-29T14:00:51;5.47;;;2.22;;
23046;SDS011;11691;51.462;6.902;2022-09-29T14:06:33;4.82;;;2.33;;
23046;SDS011;11691;51.462;6.902;2022-09-29T14:08:50;5.22;;;2.15;;
23046;SDS011;11691;51.462;6.902;2022-09-29T14:13:52;5.20;;;2.38;;
23046;SDS011;11691;51.462;6.902;2022-09-29T14:18:57;4.57;;;2.30;;
23046;SDS011;11691;51.462;6.902;2022-09-29T14:24:53;3.38;;;1.88;;
23046;SDS011;11691;51.462;6.902;2022-09-29T14:29:57;3.97;;;1.40;;
23046;SDS011;11691;51.462;6.902;2022-09-29T14:32:33;2.10;;;0.90;;
23046;SDS011;11691;51.462;6.902;2022-09-29T14:35:12;5.10;;;1.40;;
23046;SDS011;11691;51.462;6.902;2022-09-29T14:37:39;2.70;;;1.30;;
23046;SDS011;11691;51.462;6.902;2022-09-29T14:40:06;3.38;;;1.58;;
23046;SDS011;11691;51.462;6.902;2022-09-29T14:43:01;2.60;;;1.38;;
23046;SDS011;11691;51.462;6.902;2022-09-29T14:45:27;2.83;;;1.35;;
23046;SDS011;11691;51.462;6.902;2022-09-29T14:48:16;3.67;;;1.25;;
23046;SDS011;11691;51.462;6.902;2022-09-29T14:51:25;1.95;;;1.17;;
23046;SDS011;11691;51.462;6.902;2022-09-29T15:00:17;5.95;;;1.10;;
23046;SDS011;11691;51.462;6.902;2022-09-29T15:02:48;3.80;;;1.27;;
23046;SDS011;11691;51.462;6.902;2022-09-29T15:05:35;3.15;;;1.45;;
23046;SDS011;11691;51.462;6.902;2022-09-29T15:08:01;5.30;;;2.17;;
23046;SDS011;11691;51.462;6.902;2022-09-29T15:10:37;4.40;;;1.52;;
23046;SDS011;11691;51.462;6.902;2022-09-29T15:13:18;5.03;;;1.80;;
23046;SDS011;11691;51.462;6.902;2022-09-29T15:23:58;5.15;;;1.60;;
23046;SDS011;11691;51.462;6.902;2022-09-29T15:26:29;3.28;;;1.50;;
23046;SDS011;11691;51.462;6.902;2022-09-29T15:28:56;5.28;;;1.90;;
23046;SDS011;11691;51.462;6.902;2022-09-29T15:31:25;3.85;;;1.80;;
23046;SDS011;11691;51.462;6.902;2022-09-29T15:33:53;3.58;;;1.85;;
23046;SDS011;11691;51.462;6.902;2022-09-29T15:38:45;3.13;;;1.65;;
23046;SDS011;11691;51.462;6.902;2022-09-29T15:46:33;2.53;;;1.40;;
23046;SDS011;11691;51.462;6.902;2022-09-29T15:51:34;3.13;;;1.65;;
23046;SDS011;11691;51.462;6.902;2022-09-29T15:54:01;2.67;;;1.40;;
23046;SDS011;11691;51.462;6.902;2022-09-29T15:56:33;4.32;;;1.33;;
23046;SDS011;11691;51.462;6.902;2022-09-29T15:59:19;7.65;;;1.40;;
23046;SDS011;11691;51.462;6.902;2022-09-29T16:01:46;3.92;;;1.40;;
23046;SDS011;11691;51.462;6.902;2022-09-29T16:04:14;2.17;;;1.02;;
23046;SDS011;11691;51.462;6.902;2022-09-29T16:06:40;2.78;;;1.25;;
23046;SDS011;11691;51.462;6.902;2022-09-29T16:09:13;2.97;;;1.33;;
23046;SDS011;11691;51.462;6.902;2022-09-29T16:11:42;3.50;;;1.13;;
23046;SDS011;11691;51.462;6.902;2022-09-29T16:14:09;4.10;;;1.13;;
23046;SDS011;11691;51.462;6.902;2022-09-29T16:16:39;5.03;;;1.08;;
23046;SDS011;11691;51.462;6.902;2022-09-29T16:19:13;4.07;;;1.00;;
23046;SDS011;11691;51.462;6.902;2022-09-29T16:21:48;2.55;;;1.23;;
23046;SDS011;11691;51.462;6.902;2022-09-29T16:24:17;2.75;;;1.35;;
23046;SDS011;11691;51.462;6.902;2022-09-29T16:31:37;2.95;;;1.30;;
23046;SDS011;11691;51.462;6.902;2022-09-29T16:34:03;3.85;;;1.55;;
23046;SDS011;11691;51.462;6.902;2022-09-29T16:36:31;5.65;;;1.50;;
23046;SDS011;11691;51.462;6.902;2022-09-29T16:39:01;2.22;;;1.10;;
23046;SDS011;11691;51.462;6.902;2022-09-29T16:41:35;5.05;;;1.38;;
23046;SDS011;11691;51.462;6.902;2022-09-29T16:46:51;1.95;;;1.13;;
23046;SDS011;11691;51.462;6.902;2022-09-29T16:49:25;2.22;;;1.10;;
23046;SDS011;11691;51.462;6.902;2022-09-29T16:51:52;4.38;;;1.30;;
23046;SDS011;11691;51.462;6.902;2022-09-29T16:54:22;5.68;;;1.42;;
23046;SDS011;11691;51.462;6.902;2022-09-29T16:59:47;3.72;;;1.77;;
23046;SDS011;11691;51.462;6.902;2022-09-29T17:02:23;4.00;;;1.50;;
23046;SDS011;11691;51.462;6.902;2022-09-29T17:04:50;6.90;;;2.28;;
23046;SDS011;11691;51.462;6.902;2022-09-29T17:07:19;6.00;;;1.95;;
23046;SDS011;11691;51.462;6.902;2022-09-29T17:09:47;8.35;;;2.35;;
23046;SDS011;11691;51.462;6.902;2022-09-29T17:12:16;7.13;;;2.40;;
23046;SDS011;11691;51.462;6.902;2022-09-29T17:14:43;5.55;;;2.42;;
23046;SDS011;11691;51.462;6.902;2022-09-29T17:17:15;4.10;;;2.00;;
23046;SDS011;11691;51.462;6.902;2022-09-29T17:19:43;7.97;;;2.22;;
23046;SDS011;11691;51.462;6.902;2022-09-29T17:24:50;5.93;;;2.08;;
23046;SDS011;11691;51.462;6.902;2022-09-29T17:27:15;5.35;;;2.60;;
23046;SDS011;11691;51.462;6.902;2022-09-29T17:30:00;7.50;;;2.45;;
23046;SDS011;11691;51.462;6.902;2022-09-29T17:32:25;5.78;;;2.60;;
23046;SDS011;11691;51.462;6.902;2022-09-29T17:34:51;5.70;;;3.17;;
23046;SDS011;11691;51.462;6.902;2022-09-29T17:37:17;7.15;;;3.22;;
23046;SDS011;11691;51.462;6.902;2022-09-29T17:39:43;5.40;;;3.08;;
23046;SDS011;11691;51.462;6.902;2022-09-29T17:42:09;5.25;;;3.00;;
23046;SDS011;11691;51.462;6.902;2022-09-29T17:44:37;6.32;;;3.45;;
23046;SDS011;11691;51.462;6.902;2022-09-29T17:47:07;6.93;;;4.40;;
23046;SDS011;11691;51.462;6.902;2022-09-29T17:49:34;6.25;;;3.80;;
23046;SDS011;11691;51.462;6.902;2022-09-29T17:52:03;5.47;;;3.83;;
23046;SDS011;11691;51.462;6.902;2022-09-29T17:54:31;5.55;;;4.00;;
23046;SDS011;11691;51.462;6.902;2022-09-29T17:56:59;8.73;;;4.90;;
23046;SDS011;11691;51.462;6.902;2022-09-29T17:59:25;5.90;;;4.38;;
23046;SDS011;11691;51.462;6.902;2022-09-29T18:01:50;6.32;;;4.43;;
23046;SDS011;11691;51.462;6.902;2022-09-29T18:04:17;7.05;;;4.60;;
23046;SDS011;11691;51.462;6.902;2022-09-29T18:06:43;8.25;;;4.40;;
23046;SDS011;11691;51.462;6.902;2022-09-29T18:09:14;6.72;;;4.32;;
23046;SDS011;11691;51.462;6.902;2022-09-29T18:11:40;7.55;;;5.15;;
23046;SDS011;11691;51.462;6.902;2022-09-29T18:14:06;6.00;;;4.95;;
23046;SDS011;11691;51.462;6.902;2022-09-29T18:16:32;7.68;;;5.18;;